Maldives Meteorological Service

TAFS

Station TAF
VRMM
VRMM 211700Z 2118/2224 30010KT 9999 FEW018 TEMPO 2120/2202 FEW017CB=
VRMH
VRMH 211700Z 2118/2224 31008KT 9999 FEW018 TEMPO 2123/2205 FEW017CB=
VRMK
VRMK 211700Z 218/2218 28010KT 9999 FEW018 TEMPO 2118/2124 5000 -TSRA FEW017CB=
VRMT
VRMT 211700Z 2118/2218 29010KT 9999 FEW017TCU TEMPO 2118/2124 27018G35KT 3000 TSRA SCT016 FEW017CB=
VRMG
VRMG 211700Z 2118/2224 26015KT 9999 FEW017TCU TEMPO 2118/2124 28015G30KT 4000 TSRA SCT016 FEW017CB=